sensor_id;sensor_type;location;lat;lon;timestamp;P1;durP1;ratioP1;P2;durP2;ratioP2
51943;SDS011;37969;53.132;6.370;2023-10-13T00:00:33;190.55;;;173.63;;
51943;SDS011;37969;53.132;6.370;2023-10-13T00:03:05;198.02;;;180.57;;
51943;SDS011;37969;53.132;6.370;2023-10-13T00:05:32;163.25;;;148.68;;
51943;SDS011;37969;53.132;6.370;2023-10-13T00:07:59;80.13;;;61.25;;
51943;SDS011;37969;53.132;6.370;2023-10-13T00:10:29;79.38;;;48.05;;
51943;SDS011;37969;53.132;6.370;2023-10-13T00:12:56;116.25;;;103.50;;
51943;SDS011;37969;53.132;6.370;2023-10-13T00:15:43;94.18;;;64.35;;
51943;SDS011;37969;53.132;6.370;2023-10-13T00:18:23;80.40;;;57.95;;
51943;SDS011;37969;53.132;6.370;2023-10-13T00:20:52;75.57;;;53.55;;
51943;SDS011;37969;53.132;6.370;2023-10-13T00:23:21;80.13;;;39.17;;
51943;SDS011;37969;53.132;6.370;2023-10-13T00:25:48;81.03;;;62.08;;
51943;SDS011;37969;53.132;6.370;2023-10-13T00:28:16;87.72;;;55.13;;
51943;SDS011;37969;53.132;6.370;2023-10-13T00:30:49;75.50;;;44.10;;
51943;SDS011;37969;53.132;6.370;2023-10-13T00:33:17;72.05;;;42.30;;
51943;SDS011;37969;53.132;6.370;2023-10-13T00:35:45;74.10;;;46.55;;
51943;SDS011;37969;53.132;6.370;2023-10-13T00:38:12;117.63;;;105.75;;
51943;SDS011;37969;53.132;6.370;2023-10-13T00:40:39;94.97;;;58.85;;
51943;SDS011;37969;53.132;6.370;2023-10-13T00:43:07;78.97;;;46.08;;
51943;SDS011;37969;53.132;6.370;2023-10-13T00:45:46;85.15;;;62.88;;
51943;SDS011;37969;53.132;6.370;2023-10-13T00:48:23;74.43;;;45.05;;
51943;SDS011;37969;53.132;6.370;2023-10-13T00:50:55;61.03;;;31.42;;
51943;SDS011;37969;53.132;6.370;2023-10-13T00:53:22;67.80;;;39.17;;
51943;SDS011;37969;53.132;6.370;2023-10-13T00:55:50;79.03;;;39.85;;
51943;SDS011;37969;53.132;6.370;2023-10-13T00:58:17;79.20;;;41.45;;
51943;SDS011;37969;53.132;6.370;2023-10-13T01:00:47;104.63;;;94.13;;
51943;SDS011;37969;53.132;6.370;2023-10-13T01:03:14;87.18;;;76.28;;
51943;SDS011;37969;53.132;6.370;2023-10-13T01:05:41;89.10;;;78.95;;
51943;SDS011;37969;53.132;6.370;2023-10-13T01:08:08;105.97;;;96.30;;
51943;SDS011;37969;53.132;6.370;2023-10-13T01:10:35;80.22;;;68.22;;
51943;SDS011;37969;53.132;6.370;2023-10-13T01:13:02;117.50;;;105.93;;
51943;SDS011;37969;53.132;6.370;2023-10-13T01:15:29;67.47;;;45.13;;
51943;SDS011;37969;53.132;6.370;2023-10-13T01:18:07;53.47;;;31.33;;
51943;SDS011;37969;53.132;6.370;2023-10-13T01:20:37;63.17;;;40.38;;
51943;SDS011;37969;53.132;6.370;2023-10-13T01:23:17;51.60;;;29.23;;
51943;SDS011;37969;53.132;6.370;2023-10-13T01:25:44;61.97;;;37.67;;
51943;SDS011;37969;53.132;6.370;2023-10-13T01:28:11;62.95;;;45.72;;
51943;SDS011;37969;53.132;6.370;2023-10-13T01:30:44;70.15;;;44.55;;
51943;SDS011;37969;53.132;6.370;2023-10-13T01:33:19;75.15;;;68.20;;
51943;SDS011;37969;53.132;6.370;2023-10-13T01:35:52;54.30;;;32.88;;
51943;SDS011;37969;53.132;6.370;2023-10-13T01:38:20;47.17;;;29.35;;
51943;SDS011;37969;53.132;6.370;2023-10-13T01:40:46;45.00;;;26.92;;
51943;SDS011;37969;53.132;6.370;2023-10-13T01:45:43;42.20;;;21.80;;
51943;SDS011;37969;53.132;6.370;2023-10-13T01:48:12;48.13;;;22.92;;
51943;SDS011;37969;53.132;6.370;2023-10-13T01:50:42;44.90;;;23.30;;
51943;SDS011;37969;53.132;6.370;2023-10-13T01:53:19;43.45;;;22.23;;
51943;SDS011;37969;53.132;6.370;2023-10-13T01:55:47;41.28;;;20.27;;
51943;SDS011;37969;53.132;6.370;2023-10-13T01:58:15;35.88;;;21.20;;
51943;SDS011;37969;53.132;6.370;2023-10-13T02:00:42;35.60;;;19.27;;
51943;SDS011;37969;53.132;6.370;2023-10-13T02:03:09;33.15;;;21.00;;
51943;SDS011;37969;53.132;6.370;2023-10-13T02:05:42;32.88;;;18.48;;
51943;SDS011;37969;53.132;6.370;2023-10-13T02:08:16;31.27;;;18.13;;
51943;SDS011;37969;53.132;6.370;2023-10-13T02:10:47;32.85;;;20.30;;
51943;SDS011;37969;53.132;6.370;2023-10-13T02:13:14;34.83;;;18.50;;
51943;SDS011;37969;53.132;6.370;2023-10-13T02:15:42;38.63;;;20.17;;
51943;SDS011;37969;53.132;6.370;2023-10-13T02:18:09;37.50;;;19.05;;
51943;SDS011;37969;53.132;6.370;2023-10-13T02:20:36;34.67;;;19.70;;
51943;SDS011;37969;53.132;6.370;2023-10-13T02:23:08;34.55;;;19.67;;
51943;SDS011;37969;53.132;6.370;2023-10-13T02:25:37;37.03;;;19.70;;
51943;SDS011;37969;53.132;6.370;2023-10-13T02:28:11;35.88;;;20.83;;
51943;SDS011;37969;53.132;6.370;2023-10-13T02:30:46;36.83;;;18.92;;
51943;SDS011;37969;53.132;6.370;2023-10-13T02:33:18;26.83;;;17.02;;
51943;SDS011;37969;53.132;6.370;2023-10-13T02:35:49;28.40;;;16.98;;
51943;SDS011;37969;53.132;6.370;2023-10-13T02:38:19;23.08;;;16.25;;
51943;SDS011;37969;53.132;6.370;2023-10-13T02:40:53;22.77;;;14.75;;
51943;SDS011;37969;53.132;6.370;2023-10-13T02:43:22;24.27;;;15.60;;
51943;SDS011;37969;53.132;6.370;2023-10-13T02:45:52;25.90;;;17.50;;
51943;SDS011;37969;53.132;6.370;2023-10-13T02:48:23;30.75;;;19.08;;
51943;SDS011;37969;53.132;6.370;2023-10-13T02:50:55;39.58;;;21.85;;
51943;SDS011;37969;53.132;6.370;2023-10-13T02:53:21;33.75;;;21.85;;
51943;SDS011;37969;53.132;6.370;2023-10-13T02:55:53;38.38;;;22.52;;
51943;SDS011;37969;53.132;6.370;2023-10-13T02:58:33;45.03;;;25.42;;
51943;SDS011;37969;53.132;6.370;2023-10-13T03:01:09;49.33;;;26.50;;
51943;SDS011;37969;53.132;6.370;2023-10-13T03:03:52;54.95;;;28.63;;
51943;SDS011;37969;53.132;6.370;2023-10-13T03:06:23;48.38;;;27.38;;
51943;SDS011;37969;53.132;6.370;2023-10-13T03:08:57;46.63;;;25.38;;
51943;SDS011;37969;53.132;6.370;2023-10-13T03:11:38;47.85;;;26.30;;
51943;SDS011;37969;53.132;6.370;2023-10-13T03:14:13;53.85;;;27.15;;
51943;SDS011;37969;53.132;6.370;2023-10-13T03:16:49;48.08;;;25.50;;
51943;SDS011;37969;53.132;6.370;2023-10-13T03:19:15;47.40;;;26.52;;
51943;SDS011;37969;53.132;6.370;2023-10-13T03:21:44;46.30;;;25.90;;
51943;SDS011;37969;53.132;6.370;2023-10-13T03:24:20;42.58;;;24.65;;
51943;SDS011;37969;53.132;6.370;2023-10-13T03:26:48;34.53;;;21.65;;
51943;SDS011;37969;53.132;6.370;2023-10-13T03:29:17;35.53;;;22.05;;
51943;SDS011;37969;53.132;6.370;2023-10-13T03:31:47;34.55;;;20.73;;
51943;SDS011;37969;53.132;6.370;2023-10-13T03:34:31;28.05;;;18.98;;
51943;SDS011;37969;53.132;6.370;2023-10-13T03:36:59;31.85;;;18.17;;
51943;SDS011;37969;53.132;6.370;2023-10-13T03:39:36;25.30;;;16.55;;
51943;SDS011;37969;53.132;6.370;2023-10-13T03:42:02;29.17;;;16.85;;
51943;SDS011;37969;53.132;6.370;2023-10-13T03:44:30;27.88;;;16.17;;
51943;SDS011;37969;53.132;6.370;2023-10-13T03:46:57;24.08;;;15.13;;
51943;SDS011;37969;53.132;6.370;2023-10-13T03:49:43;21.85;;;15.40;;
51943;SDS011;37969;53.132;6.370;2023-10-13T03:52:09;20.88;;;15.75;;
51943;SDS011;37969;53.132;6.370;2023-10-13T03:54:39;20.80;;;16.10;;
51943;SDS011;37969;53.132;6.370;2023-10-13T03:57:06;22.45;;;17.38;;
51943;SDS011;37969;53.132;6.370;2023-10-13T03:59:39;28.83;;;17.90;;
51943;SDS011;37969;53.132;6.370;2023-10-13T04:02:05;27.23;;;18.17;;
51943;SDS011;37969;53.132;6.370;2023-10-13T04:04:39;34.50;;;19.08;;
51943;SDS011;37969;53.132;6.370;2023-10-13T04:07:14;29.33;;;18.98;;
51943;SDS011;37969;53.132;6.370;2023-10-13T04:09:59;32.28;;;19.73;;
51943;SDS011;37969;53.132;6.370;2023-10-13T04:13:04;33.95;;;20.90;;
51943;SDS011;37969;53.132;6.370;2023-10-13T04:15:45;30.33;;;19.42;;
51943;SDS011;37969;53.132;6.370;2023-10-13T04:18:47;29.50;;;20.45;;
51943;SDS011;37969;53.132;6.370;2023-10-13T04:21:22;28.10;;;18.70;;
51943;SDS011;37969;53.132;6.370;2023-10-13T04:24:07;30.58;;;19.20;;
51943;SDS011;37969;53.132;6.370;2023-10-13T04:26:34;33.53;;;19.90;;
51943;SDS011;37969;53.132;6.370;2023-10-13T04:29:23;33.20;;;19.00;;
51943;SDS011;37969;53.132;6.370;2023-10-13T04:32:10;27.15;;;17.02;;
51943;SDS011;37969;53.132;6.370;2023-10-13T04:34:40;30.98;;;17.15;;
51943;SDS011;37969;53.132;6.370;2023-10-13T04:37:13;29.90;;;18.88;;
51943;SDS011;37969;53.132;6.370;2023-10-13T04:39:58;30.80;;;17.25;;
51943;SDS011;37969;53.132;6.370;2023-10-13T04:45:22;28.60;;;17.17;;
51943;SDS011;37969;53.132;6.370;2023-10-13T04:47:58;32.22;;;17.23;;
51943;SDS011;37969;53.132;6.370;2023-10-13T04:51:02;33.35;;;18.75;;
51943;SDS011;37969;53.132;6.370;2023-10-13T04:53:49;28.63;;;17.63;;
51943;SDS011;37969;53.132;6.370;2023-10-13T04:56:37;30.88;;;18.27;;
51943;SDS011;37969;53.132;6.370;2023-10-13T04:59:24;33.88;;;17.98;;
51943;SDS011;37969;53.132;6.370;2023-10-13T05:02:10;26.35;;;19.15;;
51943;SDS011;37969;53.132;6.370;2023-10-13T05:04:55;32.63;;;21.42;;
51943;SDS011;37969;53.132;6.370;2023-10-13T05:07:31;36.05;;;18.67;;
51943;SDS011;37969;53.132;6.370;2023-10-13T05:10:16;30.52;;;27.27;;
51943;SDS011;37969;53.132;6.370;2023-10-13T05:13:01;34.13;;;30.60;;
51943;SDS011;37969;53.132;6.370;2023-10-13T05:15:48;60.20;;;55.45;;
51943;SDS011;37969;53.132;6.370;2023-10-13T05:18:33;30.38;;;20.05;;
51943;SDS011;37969;53.132;6.370;2023-10-13T05:21:18;35.97;;;28.75;;
51943;SDS011;37969;53.132;6.370;2023-10-13T05:24:03;27.80;;;23.30;;
51943;SDS011;37969;53.132;6.370;2023-10-13T05:26:48;37.33;;;34.15;;
51943;SDS011;37969;53.132;6.370;2023-10-13T05:29:33;63.85;;;59.25;;
51943;SDS011;37969;53.132;6.370;2023-10-13T05:32:18;56.75;;;52.60;;
51943;SDS011;37969;53.132;6.370;2023-10-13T05:35:03;144.43;;;134.63;;
51943;SDS011;37969;53.132;6.370;2023-10-13T05:37:48;305.35;;;282.55;;
51943;SDS011;37969;53.132;6.370;2023-10-13T05:40:33;177.50;;;165.60;;
51943;SDS011;37969;53.132;6.370;2023-10-13T05:43:18;195.52;;;182.57;;
51943;SDS011;37969;53.132;6.370;2023-10-13T05:46:03;273.15;;;253.60;;
51943;SDS011;37969;53.132;6.370;2023-10-13T05:49:06;276.02;;;256.15;;
51943;SDS011;37969;53.132;6.370;2023-10-13T05:51:41;301.65;;;280.10;;
51943;SDS011;37969;53.132;6.370;2023-10-13T05:54:23;270.50;;;251.25;;
51943;SDS011;37969;53.132;6.370;2023-10-13T05:57:08;286.08;;;265.80;;
51943;SDS011;37969;53.132;6.370;2023-10-13T05:59:53;173.90;;;162.70;;
51943;SDS011;37969;53.132;6.370;2023-10-13T06:02:38;137.38;;;128.52;;
51943;SDS011;37969;53.132;6.370;2023-10-13T06:05:23;226.90;;;211.40;;
51943;SDS011;37969;53.132;6.370;2023-10-13T06:08:08;346.77;;;320.25;;
51943;SDS011;37969;53.132;6.370;2023-10-13T06:11:00;305.52;;;283.25;;
51943;SDS011;37969;53.132;6.370;2023-10-13T06:13:45;242.10;;;225.25;;
51943;SDS011;37969;53.132;6.370;2023-10-13T06:16:31;191.70;;;178.80;;
51943;SDS011;37969;53.132;6.370;2023-10-13T06:19:16;283.55;;;262.92;;
51943;SDS011;37969;53.132;6.370;2023-10-13T06:22:01;298.88;;;276.98;;
51943;SDS011;37969;53.132;6.370;2023-10-13T06:24:46;272.95;;;253.40;;
51943;SDS011;37969;53.132;6.370;2023-10-13T06:27:31;361.63;;;332.67;;
51943;SDS011;37969;53.132;6.370;2023-10-13T06:30:16;156.88;;;146.68;;
51943;SDS011;37969;53.132;6.370;2023-10-13T06:32:42;229.73;;;213.95;;
51943;SDS011;37969;53.132;6.370;2023-10-13T06:35:12;247.35;;;229.77;;
51943;SDS011;37969;53.132;6.370;2023-10-13T06:37:48;342.58;;;316.20;;
51943;SDS011;37969;53.132;6.370;2023-10-13T06:40:14;209.73;;;195.43;;
51943;SDS011;37969;53.132;6.370;2023-10-13T06:42:46;196.50;;;183.30;;
51943;SDS011;37969;53.132;6.370;2023-10-13T06:45:12;327.67;;;302.45;;
51943;SDS011;37969;53.132;6.370;2023-10-13T06:47:41;409.63;;;375.30;;
51943;SDS011;37969;53.132;6.370;2023-10-13T06:50:14;405.95;;;370.95;;
51943;SDS011;37969;53.132;6.370;2023-10-13T06:52:41;369.98;;;340.15;;
51943;SDS011;37969;53.132;6.370;2023-10-13T06:55:10;400.77;;;367.65;;
51943;SDS011;37969;53.132;6.370;2023-10-13T06:57:43;340.67;;;313.30;;
51943;SDS011;37969;53.132;6.370;2023-10-13T07:00:12;475.70;;;431.23;;
51943;SDS011;37969;53.132;6.370;2023-10-13T07:02:45;458.23;;;417.20;;
51943;SDS011;37969;53.132;6.370;2023-10-13T07:05:12;477.15;;;433.60;;
51943;SDS011;37969;53.132;6.370;2023-10-13T07:07:39;459.65;;;419.90;;
51943;SDS011;37969;53.132;6.370;2023-10-13T07:10:12;484.42;;;440.40;;
51943;SDS011;37969;53.132;6.370;2023-10-13T07:12:39;492.42;;;446.20;;
51943;SDS011;37969;53.132;6.370;2023-10-13T07:15:12;504.70;;;457.85;;
51943;SDS011;37969;53.132;6.370;2023-10-13T07:17:44;499.38;;;451.70;;
51943;SDS011;37969;53.132;6.370;2023-10-13T07:20:10;512.90;;;461.08;;
51943;SDS011;37969;53.132;6.370;2023-10-13T07:22:41;503.73;;;452.83;;
51943;SDS011;37969;53.132;6.370;2023-10-13T07:25:11;506.17;;;452.85;;
51943;SDS011;37969;53.132;6.370;2023-10-13T07:27:48;501.33;;;454.10;;
51943;SDS011;37969;53.132;6.370;2023-10-13T07:30:15;517.13;;;463.27;;
51943;SDS011;37969;53.132;6.370;2023-10-13T07:32:45;521.20;;;467.67;;
51943;SDS011;37969;53.132;6.370;2023-10-13T07:35:14;522.92;;;467.00;;
51943;SDS011;37969;53.132;6.370;2023-10-13T07:37:43;518.60;;;465.55;;
51943;SDS011;37969;53.132;6.370;2023-10-13T07:40:10;478.95;;;435.00;;
51943;SDS011;37969;53.132;6.370;2023-10-13T07:42:51;506.50;;;456.08;;
51943;SDS011;37969;53.132;6.370;2023-10-13T07:45:21;493.77;;;438.35;;
51943;SDS011;37969;53.132;6.370;2023-10-13T07:47:50;550.45;;;462.77;;
51943;SDS011;37969;53.132;6.370;2023-10-13T07:50:16;527.28;;;453.70;;
51943;SDS011;37969;53.132;6.370;2023-10-13T07:52:53;516.00;;;461.55;;
51943;SDS011;37969;53.132;6.370;2023-10-13T07:55:47;578.22;;;468.02;;
51943;SDS011;37969;53.132;6.370;2023-10-13T07:58:13;550.83;;;462.92;;
51943;SDS011;37969;53.132;6.370;2023-10-13T08:00:39;538.45;;;465.13;;
51943;SDS011;37969;53.132;6.370;2023-10-13T08:03:09;529.88;;;474.05;;
51943;SDS011;37969;53.132;6.370;2023-10-13T08:05:41;520.45;;;470.02;;
51943;SDS011;37969;53.132;6.370;2023-10-13T08:08:23;513.35;;;464.85;;
51943;SDS011;37969;53.132;6.370;2023-10-13T08:10:57;534.47;;;479.50;;
51943;SDS011;37969;53.132;6.370;2023-10-13T08:13:33;499.48;;;447.58;;
51943;SDS011;37969;53.132;6.370;2023-10-13T08:16:01;510.15;;;459.98;;
51943;SDS011;37969;53.132;6.370;2023-10-13T08:18:35;484.75;;;438.77;;
51943;SDS011;37969;53.132;6.370;2023-10-13T08:21:03;419.27;;;383.58;;
51943;SDS011;37969;53.132;6.370;2023-10-13T08:26:22;405.58;;;370.10;;
51943;SDS011;37969;53.132;6.370;2023-10-13T08:28:57;331.55;;;305.48;;
51943;SDS011;37969;53.132;6.370;2023-10-13T08:31:30;244.35;;;226.88;;
51943;SDS011;37969;53.132;6.370;2023-10-13T08:33:56;160.80;;;149.73;;
51943;SDS011;37969;53.132;6.370;2023-10-13T08:36:32;73.45;;;67.75;;
51943;SDS011;37969;53.132;6.370;2023-10-13T08:39:03;69.53;;;64.80;;
51943;SDS011;37969;53.132;6.370;2023-10-13T08:41:49;58.45;;;53.70;;
51943;SDS011;37969;53.132;6.370;2023-10-13T08:44:37;39.83;;;36.00;;
51943;SDS011;37969;53.132;6.370;2023-10-13T08:47:04;111.60;;;104.45;;
51943;SDS011;37969;53.132;6.370;2023-10-13T08:49:32;122.10;;;114.18;;
51943;SDS011;37969;53.132;6.370;2023-10-13T08:52:05;65.85;;;60.75;;
51943;SDS011;37969;53.132;6.370;2023-10-13T08:54:51;159.52;;;148.52;;
51943;SDS011;37969;53.132;6.370;2023-10-13T08:57:29;59.40;;;54.50;;
51943;SDS011;37969;53.132;6.370;2023-10-13T08:59:58;124.93;;;116.45;;
51943;SDS011;37969;53.132;6.370;2023-10-13T09:02:45;28.00;;;25.23;;
51943;SDS011;37969;53.132;6.370;2023-10-13T09:05:24;32.25;;;29.67;;
51943;SDS011;37969;53.132;6.370;2023-10-13T09:08:26;34.30;;;31.13;;
51943;SDS011;37969;53.132;6.370;2023-10-13T09:11:01;46.72;;;43.35;;
51943;SDS011;37969;53.132;6.370;2023-10-13T09:13:37;15.40;;;8.25;;
51943;SDS011;37969;53.132;6.370;2023-10-13T09:16:12;16.60;;;8.15;;
51943;SDS011;37969;53.132;6.370;2023-10-13T09:19:08;20.15;;;8.25;;
51943;SDS011;37969;53.132;6.370;2023-10-13T09:21:37;15.40;;;12.13;;
51943;SDS011;37969;53.132;6.370;2023-10-13T09:24:10;18.85;;;10.95;;
51943;SDS011;37969;53.132;6.370;2023-10-13T09:26:47;21.83;;;8.13;;
51943;SDS011;37969;53.132;6.370;2023-10-13T09:29:18;18.88;;;7.18;;
51943;SDS011;37969;53.132;6.370;2023-10-13T09:31:58;11.02;;;6.60;;
51943;SDS011;37969;53.132;6.370;2023-10-13T09:34:25;16.90;;;7.03;;
51943;SDS011;37969;53.132;6.370;2023-10-13T09:36:57;17.48;;;7.50;;
51943;SDS011;37969;53.132;6.370;2023-10-13T09:39:24;18.92;;;7.10;;
51943;SDS011;37969;53.132;6.370;2023-10-13T09:42:10;15.80;;;7.68;;
51943;SDS011;37969;53.132;6.370;2023-10-13T09:44:41;17.58;;;7.07;;
51943;SDS011;37969;53.132;6.370;2023-10-13T09:47:15;15.02;;;6.90;;
51943;SDS011;37969;53.132;6.370;2023-10-13T09:49:47;18.50;;;6.60;;
51943;SDS011;37969;53.132;6.370;2023-10-13T09:52:20;16.60;;;6.60;;
51943;SDS011;37969;53.132;6.370;2023-10-13T09:54:58;19.60;;;7.35;;
51943;SDS011;37969;53.132;6.370;2023-10-13T09:57:29;11.73;;;7.05;;
51943;SDS011;37969;53.132;6.370;2023-10-13T10:00:12;19.83;;;6.53;;
51943;SDS011;37969;53.132;6.370;2023-10-13T10:03:12;11.25;;;6.32;;
51943;SDS011;37969;53.132;6.370;2023-10-13T10:06:00;14.10;;;5.68;;
51943;SDS011;37969;53.132;6.370;2023-10-13T10:08:50;16.55;;;5.80;;
51943;SDS011;37969;53.132;6.370;2023-10-13T10:11:23;18.10;;;6.10;;
51943;SDS011;37969;53.132;6.370;2023-10-13T10:18:58;9.93;;;5.35;;
51943;SDS011;37969;53.132;6.370;2023-10-13T10:21:46;16.85;;;7.15;;
51943;SDS011;37969;53.132;6.370;2023-10-13T10:24:14;17.02;;;6.05;;
51943;SDS011;37969;53.132;6.370;2023-10-13T10:26:51;19.08;;;6.82;;
51943;SDS011;37969;53.132;6.370;2023-10-13T10:29:18;17.20;;;7.22;;
51943;SDS011;37969;53.132;6.370;2023-10-13T10:31:44;19.67;;;5.93;;
51943;SDS011;37969;53.132;6.370;2023-10-13T10:34:14;15.95;;;6.15;;
51943;SDS011;37969;53.132;6.370;2023-10-13T10:36:47;18.48;;;6.03;;
51943;SDS011;37969;53.132;6.370;2023-10-13T10:39:13;13.13;;;5.93;;
51943;SDS011;37969;53.132;6.370;2023-10-13T10:41:40;17.55;;;5.82;;
51943;SDS011;37969;53.132;6.370;2023-10-13T10:44:14;16.55;;;5.53;;
51943;SDS011;37969;53.132;6.370;2023-10-13T10:47:12;15.05;;;5.82;;
51943;SDS011;37969;53.132;6.370;2023-10-13T10:49:45;12.65;;;5.50;;
51943;SDS011;37969;53.132;6.370;2023-10-13T10:52:16;15.57;;;6.30;;
51943;SDS011;37969;53.132;6.370;2023-10-13T10:54:45;16.55;;;5.75;;
51943;SDS011;37969;53.132;6.370;2023-10-13T10:57:17;19.42;;;5.75;;
51943;SDS011;37969;53.132;6.370;2023-10-13T10:59:44;13.60;;;5.57;;
51943;SDS011;37969;53.132;6.370;2023-10-13T11:02:10;18.75;;;5.57;;
51943;SDS011;37969;53.132;6.370;2023-10-13T11:04:40;15.45;;;5.93;;
51943;SDS011;37969;53.132;6.370;2023-10-13T11:07:25;18.65;;;5.72;;
51943;SDS011;37969;53.132;6.370;2023-10-13T11:09:52;20.25;;;5.82;;
51943;SDS011;37969;53.132;6.370;2023-10-13T11:12:31;23.10;;;5.93;;
51943;SDS011;37969;53.132;6.370;2023-10-13T11:15:05;12.77;;;4.97;;
51943;SDS011;37969;53.132;6.370;2023-10-13T11:17:48;17.70;;;6.47;;
51943;SDS011;37969;53.132;6.370;2023-10-13T11:20:20;20.35;;;5.35;;
51943;SDS011;37969;53.132;6.370;2023-10-13T11:23:00;13.63;;;5.88;;
51943;SDS011;37969;53.132;6.370;2023-10-13T11:25:30;19.35;;;5.43;;
51943;SDS011;37969;53.132;6.370;2023-10-13T11:30:57;13.60;;;5.68;;
51943;SDS011;37969;53.132;6.370;2023-10-13T11:33:24;20.48;;;6.85;;
51943;SDS011;37969;53.132;6.370;2023-10-13T11:35:53;17.63;;;5.60;;
51943;SDS011;37969;53.132;6.370;2023-10-13T11:38:24;20.42;;;5.40;;
51943;SDS011;37969;53.132;6.370;2023-10-13T11:41:01;19.88;;;5.78;;
51943;SDS011;37969;53.132;6.370;2023-10-13T11:43:34;23.40;;;6.88;;
51943;SDS011;37969;53.132;6.370;2023-10-13T11:46:10;18.42;;;7.00;;
51943;SDS011;37969;53.132;6.370;2023-10-13T11:48:37;20.02;;;7.22;;
51943;SDS011;37969;53.132;6.370;2023-10-13T11:51:04;27.27;;;7.10;;
51943;SDS011;37969;53.132;6.370;2023-10-13T11:53:35;22.27;;;6.10;;
51943;SDS011;37969;53.132;6.370;2023-10-13T11:56:02;19.15;;;7.22;;
51943;SDS011;37969;53.132;6.370;2023-10-13T11:58:38;19.25;;;6.68;;
51943;SDS011;37969;53.132;6.370;2023-10-13T12:01:05;15.13;;;5.70;;
51943;SDS011;37969;53.132;6.370;2023-10-13T12:03:41;20.95;;;6.40;;
51943;SDS011;37969;53.132;6.370;2023-10-13T12:06:26;20.42;;;6.53;;
51943;SDS011;37969;53.132;6.370;2023-10-13T12:09:09;17.25;;;6.53;;
51943;SDS011;37969;53.132;6.370;2023-10-13T12:14:14;14.70;;;6.30;;
51943;SDS011;37969;53.132;6.370;2023-10-13T12:16:53;15.18;;;5.95;;
51943;SDS011;37969;53.132;6.370;2023-10-13T12:19:21;17.10;;;6.40;;
51943;SDS011;37969;53.132;6.370;2023-10-13T12:21:49;13.43;;;6.45;;
51943;SDS011;37969;53.132;6.370;2023-10-13T12:24:19;21.27;;;7.25;;
51943;SDS011;37969;53.132;6.370;2023-10-13T12:27:01;20.45;;;6.82;;
51943;SDS011;37969;53.132;6.370;2023-10-13T12:29:28;15.07;;;6.60;;
51943;SDS011;37969;53.132;6.370;2023-10-13T12:31:54;19.38;;;7.18;;
51943;SDS011;37969;53.132;6.370;2023-10-13T12:34:37;19.42;;;6.30;;
51943;SDS011;37969;53.132;6.370;2023-10-13T12:37:23;18.17;;;7.30;;
51943;SDS011;37969;53.132;6.370;2023-10-13T12:40:18;20.60;;;9.68;;
51943;SDS011;37969;53.132;6.370;2023-10-13T12:43:04;14.87;;;7.07;;
51943;SDS011;37969;53.132;6.370;2023-10-13T12:45:49;18.95;;;7.75;;
51943;SDS011;37969;53.132;6.370;2023-10-13T12:48:35;27.70;;;7.85;;
51943;SDS011;37969;53.132;6.370;2023-10-13T12:51:20;22.77;;;7.53;;
51943;SDS011;37969;53.132;6.370;2023-10-13T12:54:05;19.52;;;7.40;;
51943;SDS011;37969;53.132;6.370;2023-10-13T12:56:48;21.67;;;9.00;;
51943;SDS011;37969;53.132;6.370;2023-10-13T12:59:21;20.70;;;7.88;;
51943;SDS011;37969;53.132;6.370;2023-10-13T13:01:52;24.38;;;10.63;;
51943;SDS011;37969;53.132;6.370;2023-10-13T13:04:18;19.20;;;7.88;;
51943;SDS011;37969;53.132;6.370;2023-10-13T13:06:50;20.90;;;8.20;;
51943;SDS011;37969;53.132;6.370;2023-10-13T13:09:19;21.80;;;7.93;;
51943;SDS011;37969;53.132;6.370;2023-10-13T13:11:52;18.17;;;7.88;;
51943;SDS011;37969;53.132;6.370;2023-10-13T13:14:25;20.92;;;9.43;;
51943;SDS011;37969;53.132;6.370;2023-10-13T13:16:55;21.05;;;8.75;;
51943;SDS011;37969;53.132;6.370;2023-10-13T13:19:31;23.08;;;8.52;;
51943;SDS011;37969;53.132;6.370;2023-10-13T13:22:01;14.40;;;8.15;;
51943;SDS011;37969;53.132;6.370;2023-10-13T13:24:29;20.92;;;9.15;;
51943;SDS011;37969;53.132;6.370;2023-10-13T13:26:58;23.10;;;8.70;;
51943;SDS011;37969;53.132;6.370;2023-10-13T13:29:30;19.05;;;8.48;;
51943;SDS011;37969;53.132;6.370;2023-10-13T13:31:56;22.40;;;8.45;;
51943;SDS011;37969;53.132;6.370;2023-10-13T13:34:23;23.00;;;8.73;;
51943;SDS011;37969;53.132;6.370;2023-10-13T13:36:49;18.98;;;8.57;;
51943;SDS011;37969;53.132;6.370;2023-10-13T13:39:20;19.73;;;8.73;;
51943;SDS011;37969;53.132;6.370;2023-10-13T13:41:56;22.17;;;8.05;;
51943;SDS011;37969;53.132;6.370;2023-10-13T13:44:25;18.67;;;8.23;;
51943;SDS011;37969;53.132;6.370;2023-10-13T13:46:57;21.17;;;9.15;;
51943;SDS011;37969;53.132;6.370;2023-10-13T13:49:23;18.67;;;8.32;;
51943;SDS011;37969;53.132;6.370;2023-10-13T13:51:55;19.40;;;8.23;;
51943;SDS011;37969;53.132;6.370;2023-10-13T13:54:30;23.38;;;9.45;;
51943;SDS011;37969;53.132;6.370;2023-10-13T13:57:02;22.85;;;9.75;;
51943;SDS011;37969;53.132;6.370;2023-10-13T13:59:29;20.40;;;8.95;;
51943;SDS011;37969;53.132;6.370;2023-10-13T14:04:25;21.60;;;7.57;;
51943;SDS011;37969;53.132;6.370;2023-10-13T14:06:56;22.50;;;8.40;;
51943;SDS011;37969;53.132;6.370;2023-10-13T14:09:23;22.42;;;9.82;;
51943;SDS011;37969;53.132;6.370;2023-10-13T14:12:01;19.55;;;9.20;;
51943;SDS011;37969;53.132;6.370;2023-10-13T14:14:46;19.05;;;9.02;;
51943;SDS011;37969;53.132;6.370;2023-10-13T14:17:21;23.00;;;7.28;;
51943;SDS011;37969;53.132;6.370;2023-10-13T14:19:54;13.57;;;7.85;;
51943;SDS011;37969;53.132;6.370;2023-10-13T14:22:21;26.55;;;11.55;;
51943;SDS011;37969;53.132;6.370;2023-10-13T14:24:50;22.83;;;8.73;;
51943;SDS011;37969;53.132;6.370;2023-10-13T14:27:20;25.10;;;8.45;;
51943;SDS011;37969;53.132;6.370;2023-10-13T14:29:51;21.20;;;8.80;;
51943;SDS011;37969;53.132;6.370;2023-10-13T14:32:21;29.58;;;8.95;;
51943;SDS011;37969;53.132;6.370;2023-10-13T14:34:52;23.08;;;8.30;;
51943;SDS011;37969;53.132;6.370;2023-10-13T14:37:22;20.98;;;8.32;;
51943;SDS011;37969;53.132;6.370;2023-10-13T14:39:55;19.90;;;8.00;;
51943;SDS011;37969;53.132;6.370;2023-10-13T14:42:28;18.58;;;8.65;;
51943;SDS011;37969;53.132;6.370;2023-10-13T14:45:01;20.55;;;8.25;;
51943;SDS011;37969;53.132;6.370;2023-10-13T14:47:37;18.38;;;8.57;;
51943;SDS011;37969;53.132;6.370;2023-10-13T14:50:04;20.45;;;8.27;;
51943;SDS011;37969;53.132;6.370;2023-10-13T14:52:31;17.73;;;7.70;;
51943;SDS011;37969;53.132;6.370;2023-10-13T14:54:57;21.67;;;8.15;;
51943;SDS011;37969;53.132;6.370;2023-10-13T14:57:24;24.52;;;9.00;;
51943;SDS011;37969;53.132;6.370;2023-10-13T14:59:53;19.08;;;7.68;;
51943;SDS011;37969;53.132;6.370;2023-10-13T15:02:20;49.33;;;21.70;;
51943;SDS011;37969;53.132;6.370;2023-10-13T15:04:47;26.80;;;7.82;;
51943;SDS011;37969;53.132;6.370;2023-10-13T15:07:14;28.67;;;10.93;;
51943;SDS011;37969;53.132;6.370;2023-10-13T15:09:41;20.13;;;8.15;;
51943;SDS011;37969;53.132;6.370;2023-10-13T15:12:11;26.67;;;11.50;;
51943;SDS011;37969;53.132;6.370;2023-10-13T15:14:38;15.60;;;6.93;;
51943;SDS011;37969;53.132;6.370;2023-10-13T15:17:04;23.98;;;8.18;;
51943;SDS011;37969;53.132;6.370;2023-10-13T15:22:08;23.35;;;8.07;;
51943;SDS011;37969;53.132;6.370;2023-10-13T15:24:42;18.05;;;8.85;;